createdAt,value
2017-12-19T00:00:30.968Z,29.70
2017-12-19T00:02:34.174Z,39.13
2017-12-19T00:04:37.451Z,39.33
2017-12-19T00:06:40.676Z,38.33
2017-12-19T00:08:44.672Z,35.83
2017-12-19T00:10:49.907Z,44.83
2017-12-19T00:12:53.333Z,43.80
2017-12-19T00:14:56.914Z,43.83
2017-12-19T00:17:00.643Z,46.13
2017-12-19T00:19:04.085Z,37.10
2017-12-19T00:21:07.650Z,40.37
2017-12-19T00:23:11.893Z,36.93
2017-12-19T00:25:15.378Z,38.37
2017-12-19T00:27:18.930Z,36.10
2017-12-19T00:29:22.412Z,33.20
2017-12-19T00:31:25.879Z,38.10
2017-12-19T00:33:29.545Z,30.70
2017-12-19T00:35:33.814Z,36.63
2017-12-19T00:37:37.292Z,35.57
2017-12-19T00:39:40.781Z,30.43
2017-12-19T00:41:44.383Z,36.67
2017-12-19T00:43:47.915Z,36.83
2017-12-19T00:45:51.395Z,33.73
2017-12-19T00:47:55.049Z,32.53
2017-12-19T00:49:58.694Z,36.40
2017-12-19T00:52:02.143Z,32.43
2017-12-19T00:54:06.382Z,35.10
2017-12-19T00:56:09.827Z,34.37
2017-12-19T00:58:13.300Z,34.67
2017-12-19T01:00:17.479Z,35.73
2017-12-19T01:02:21.130Z,35.47
2017-12-19T01:04:25.404Z,34.03
2017-12-19T01:06:29.967Z,35.60
2017-12-19T01:08:34.310Z,35.30
2017-12-19T01:10:37.833Z,38.03
2017-12-19T01:12:41.311Z,35.77
2017-12-19T01:14:44.819Z,34.60
2017-12-19T01:16:48.291Z,36.43
2017-12-19T01:18:51.820Z,36.30
2017-12-19T01:20:55.316Z,36.40
2017-12-19T01:22:58.731Z,31.50
2017-12-19T01:25:02.398Z,33.43
2017-12-19T01:27:05.822Z,32.17
2017-12-19T01:29:10.733Z,30.90
2017-12-19T01:31:14.416Z,37.33
2017-12-19T01:33:17.849Z,30.60
2017-12-19T01:35:21.305Z,32.70
2017-12-19T01:37:24.808Z,34.83
2017-12-19T01:39:28.302Z,31.83
2017-12-19T01:41:31.840Z,37.40
2017-12-19T01:43:35.302Z,33.83
2017-12-19T01:45:39.624Z,32.70
2017-12-19T01:47:43.078Z,36.70
2017-12-19T01:49:46.909Z,39.40
2017-12-19T01:51:51.315Z,34.83
2017-12-19T01:53:54.732Z,35.60
2017-12-19T01:55:58.209Z,37.63
2017-12-19T01:58:01.622Z,36.90
2017-12-19T02:00:05.052Z,39.17
2017-12-19T02:02:08.542Z,35.10
2017-12-19T02:04:12.708Z,34.50
2017-12-19T02:06:16.150Z,33.10
2017-12-19T02:08:19.646Z,37.93
2017-12-19T02:10:23.823Z,38.70
2017-12-19T02:12:27.306Z,32.70
2017-12-19T02:14:30.776Z,37.87
2017-12-19T02:16:35.036Z,34.70
2017-12-19T02:18:39.321Z,33.57
2017-12-19T02:20:42.776Z,36.67
2017-12-19T02:22:46.323Z,33.43
2017-12-19T02:24:49.770Z,42.50
2017-12-19T02:26:54.180Z,31.20
2017-12-19T02:28:57.657Z,32.90
2017-12-19T02:31:01.296Z,31.00
2017-12-19T02:33:04.806Z,38.43
2017-12-19T02:35:08.297Z,39.07
2017-12-19T02:37:11.785Z,33.77
2017-12-19T02:39:15.274Z,34.53
2017-12-19T02:41:18.793Z,37.00
2017-12-19T02:43:22.296Z,33.73
2017-12-19T02:45:26.547Z,38.17
2017-12-19T02:47:30.013Z,40.87
2017-12-19T02:49:33.507Z,39.50
2017-12-19T02:51:37.000Z,37.50
2017-12-19T02:53:40.515Z,39.40
2017-12-19T02:55:44.004Z,40.13
2017-12-19T02:57:47.475Z,39.10
2017-12-19T02:59:51.748Z,35.80
2017-12-19T03:01:56.018Z,39.30
2017-12-19T03:03:59.532Z,39.13
2017-12-19T03:06:03.015Z,37.60
2017-12-19T03:08:06.480Z,38.40
2017-12-19T03:10:10.736Z,41.67
2017-12-19T03:12:14.192Z,36.50
2017-12-19T03:14:18.483Z,41.27
2017-12-19T03:16:21.958Z,42.23
2017-12-19T03:18:25.419Z,39.60
2017-12-19T03:20:28.927Z,43.97
2017-12-19T03:22:32.407Z,38.23
2017-12-19T03:24:35.905Z,38.90
2017-12-19T03:26:39.399Z,54.20
2017-12-19T03:28:42.873Z,45.50
2017-12-19T03:30:47.126Z,43.00
2017-12-19T03:32:50.605Z,45.47
2017-12-19T03:34:54.121Z,37.53
2017-12-19T03:36:57.593Z,43.30
2017-12-19T03:39:01.089Z,41.50
2017-12-19T03:41:04.584Z,48.57
2017-12-19T03:43:08.073Z,44.97
2017-12-19T03:45:11.556Z,43.53
2017-12-19T03:47:15.074Z,41.63
2017-12-19T03:49:18.552Z,45.23
2017-12-19T03:51:22.044Z,42.83
2017-12-19T03:53:25.510Z,46.27
2017-12-19T03:55:29.058Z,40.73
2017-12-19T03:57:32.557Z,42.23
2017-12-19T03:59:36.079Z,41.13
2017-12-19T04:01:39.555Z,39.07
2017-12-19T04:03:43.044Z,40.57
2017-12-19T04:05:46.563Z,42.77
2017-12-19T04:07:50.628Z,42.90
2017-12-19T04:09:54.090Z,40.63
2017-12-19T04:11:57.585Z,40.03
2017-12-19T04:14:01.102Z,41.43
2017-12-19T04:16:04.584Z,36.33
2017-12-19T04:18:08.849Z,38.03
2017-12-19T04:20:12.311Z,41.43
2017-12-19T04:22:15.837Z,39.77
2017-12-19T04:24:19.277Z,44.87
2017-12-19T04:26:23.513Z,43.00
2017-12-19T04:28:27.041Z,40.20
2017-12-19T04:30:30.538Z,35.67
2017-12-19T04:32:34.072Z,39.90
2017-12-19T04:34:38.312Z,40.47
2017-12-19T04:36:41.812Z,42.53
2017-12-19T04:38:45.341Z,38.30
2017-12-19T04:40:49.635Z,41.17
2017-12-19T04:42:53.149Z,37.23
2017-12-19T04:44:56.646Z,41.97
2017-12-19T04:47:00.121Z,37.10
2017-12-19T04:49:03.617Z,40.90
2017-12-19T04:51:07.090Z,40.97
2017-12-19T04:53:10.592Z,38.10
2017-12-19T04:55:14.043Z,34.67
2017-12-19T04:57:17.519Z,40.07
2017-12-19T04:59:21.868Z,36.30
2017-12-19T05:01:26.107Z,39.93
2017-12-19T05:03:29.602Z,35.63
2017-12-19T05:05:33.062Z,36.77
2017-12-19T05:07:36.531Z,39.90
2017-12-19T05:09:40.032Z,39.87
2017-12-19T05:11:43.633Z,43.80
2017-12-19T05:13:47.495Z,35.20
2017-12-19T05:15:51.809Z,39.97
2017-12-19T05:17:55.272Z,35.20
2017-12-19T05:19:59.551Z,38.67
2017-12-19T05:22:03.149Z,39.00
2017-12-19T05:24:06.662Z,39.40
2017-12-19T05:26:10.311Z,31.27
2017-12-19T05:28:13.902Z,37.37
2017-12-19T05:30:19.047Z,39.33
2017-12-19T05:32:22.540Z,40.80
2017-12-19T05:34:26.066Z,36.13
2017-12-19T05:36:29.567Z,34.73
2017-12-19T05:38:33.049Z,40.63
2017-12-19T05:40:36.571Z,30.13
2017-12-19T05:42:40.056Z,34.17
2017-12-19T05:44:43.566Z,30.00
2017-12-19T05:46:47.892Z,31.10
2017-12-19T05:48:51.383Z,36.10
2017-12-19T05:50:55.632Z,28.87
2017-12-19T05:52:59.101Z,28.63
2017-12-19T05:55:03.381Z,35.70
2017-12-19T05:57:06.897Z,30.10
2017-12-19T05:59:10.430Z,33.10
2017-12-19T06:01:13.993Z,39.53
2017-12-19T06:03:17.467Z,38.90
2017-12-19T06:05:20.997Z,38.27
2017-12-19T06:07:24.487Z,38.17
2017-12-19T06:09:28.141Z,36.23
2017-12-19T06:11:31.709Z,34.70
2017-12-19T06:13:35.977Z,36.73
2017-12-19T06:15:39.489Z,38.87
2017-12-19T06:17:43.033Z,36.27
2017-12-19T06:19:46.525Z,33.30
2017-12-19T06:21:50.035Z,34.47
2017-12-19T06:23:53.521Z,34.20
2017-12-19T06:25:57.805Z,31.77
2017-12-19T06:28:01.276Z,33.00
2017-12-19T06:30:04.747Z,30.40
2017-12-19T06:32:08.273Z,33.23
2017-12-19T06:34:11.759Z,33.77
2017-12-19T06:36:15.398Z,42.07
2017-12-19T06:38:19.163Z,34.30
2017-12-19T06:40:22.808Z,36.70
2017-12-19T06:42:26.421Z,33.67
2017-12-19T06:44:31.072Z,39.33
2017-12-19T06:46:34.686Z,36.17
2017-12-19T06:48:38.264Z,39.30
2017-12-19T06:50:41.859Z,33.77
2017-12-19T06:52:47.716Z,34.93
2017-12-19T06:54:51.414Z,39.23
2017-12-19T06:56:54.924Z,34.77
2017-12-19T06:58:58.437Z,40.50
2017-12-19T07:01:01.888Z,35.27
2017-12-19T07:03:05.411Z,38.27
2017-12-19T07:05:08.890Z,31.70
2017-12-19T07:07:12.398Z,39.37
2017-12-19T07:09:16.604Z,46.53
2017-12-19T07:11:20.096Z,41.83
2017-12-19T07:13:23.609Z,41.77
2017-12-19T07:15:27.087Z,42.80
2017-12-19T07:17:30.637Z,46.33
2017-12-19T07:19:34.086Z,40.23
2017-12-19T07:21:37.574Z,44.63
2017-12-19T07:23:41.898Z,45.80
2017-12-19T07:25:45.434Z,51.73
2017-12-19T07:27:48.939Z,58.30
2017-12-19T07:29:53.219Z,57.87
2017-12-19T07:31:56.693Z,60.37
2017-12-19T07:34:00.200Z,50.33
2017-12-19T07:36:03.695Z,44.73
2017-12-19T07:38:07.306Z,42.33
2017-12-19T07:40:10.785Z,39.10
2017-12-19T07:42:14.378Z,39.77
2017-12-19T07:44:17.963Z,39.47
2017-12-19T07:46:21.471Z,34.00
2017-12-19T07:48:25.072Z,39.40
2017-12-19T07:50:28.517Z,40.97
2017-12-19T07:52:32.169Z,35.93
2017-12-19T07:54:35.696Z,39.70
2017-12-19T07:56:40.084Z,39.03
2017-12-19T07:58:44.183Z,40.63
2017-12-19T08:00:47.709Z,34.80
2017-12-19T08:02:52.016Z,41.00
2017-12-19T08:04:56.332Z,37.60
2017-12-19T08:06:59.903Z,36.17
2017-12-19T08:09:03.424Z,35.47
2017-12-19T08:11:06.932Z,38.17
2017-12-19T08:13:10.376Z,34.70
2017-12-19T08:15:13.939Z,36.90
2017-12-19T08:17:18.184Z,39.47
2017-12-19T08:19:21.686Z,35.40
2017-12-19T08:21:25.171Z,42.70
2017-12-19T08:23:28.623Z,34.90
2017-12-19T08:25:32.174Z,36.83
2017-12-19T08:27:35.629Z,44.90
2017-12-19T08:29:39.850Z,40.97
2017-12-19T08:31:43.310Z,46.60
2017-12-19T08:33:46.788Z,53.80
2017-12-19T08:35:50.286Z,48.77
2017-12-19T08:37:54.473Z,43.63
2017-12-19T08:39:57.888Z,45.93
2017-12-19T08:42:01.607Z,42.57
2017-12-19T08:44:05.155Z,41.87
2017-12-19T08:46:08.834Z,37.70
2017-12-19T08:48:12.359Z,32.93
2017-12-19T08:50:15.803Z,34.27
2017-12-19T08:52:19.312Z,35.37
2017-12-19T08:54:23.554Z,32.17
2017-12-19T08:56:28.226Z,32.43
2017-12-19T08:58:31.707Z,33.27
2017-12-19T09:00:35.969Z,31.23
2017-12-19T09:02:40.238Z,30.17
2017-12-19T09:04:43.695Z,28.40
2017-12-19T09:06:47.194Z,31.43
2017-12-19T09:08:50.634Z,31.47
2017-12-19T09:10:54.114Z,23.53
2017-12-19T09:12:57.620Z,31.83
2017-12-19T09:15:01.093Z,33.40
2017-12-19T09:17:07.889Z,32.13
2017-12-19T09:19:13.009Z,33.60
2017-12-19T09:21:16.474Z,30.50
2017-12-19T09:23:19.953Z,29.90
2017-12-19T09:25:24.140Z,32.03
2017-12-19T09:27:27.620Z,28.30
2017-12-19T09:29:31.068Z,29.30
2017-12-19T09:31:34.500Z,30.80
2017-12-19T09:33:37.971Z,27.57
2017-12-19T09:35:41.444Z,30.57
2017-12-19T09:37:44.920Z,31.10
2017-12-19T09:39:48.380Z,28.33
2017-12-19T09:41:51.826Z,27.90
2017-12-19T09:43:55.289Z,27.73
2017-12-19T09:46:00.413Z,28.10
2017-12-19T09:48:03.924Z,36.70
2017-12-19T09:50:08.142Z,30.53
2017-12-19T09:52:11.603Z,34.10
2017-12-19T09:54:15.050Z,36.33
2017-12-19T09:56:18.552Z,32.93
2017-12-19T09:58:22.018Z,34.40
2017-12-19T10:00:25.489Z,35.67
2017-12-19T10:02:29.194Z,33.07
2017-12-19T10:04:32.681Z,40.50
2017-12-19T10:06:36.103Z,32.77
2017-12-19T10:08:39.523Z,39.13
2017-12-19T10:10:42.981Z,34.30
2017-12-19T10:12:47.905Z,39.77
2017-12-19T10:14:52.139Z,35.00
2017-12-19T10:16:56.641Z,33.73
2017-12-19T10:19:00.863Z,33.30
2017-12-19T10:21:04.752Z,36.33
2017-12-19T10:23:09.238Z,34.20
2017-12-19T10:25:12.841Z,42.47
2017-12-19T10:27:16.286Z,36.20
2017-12-19T10:29:19.799Z,34.63
2017-12-19T10:31:24.105Z,35.87
2017-12-19T10:33:27.597Z,41.17
2017-12-19T10:35:31.138Z,38.73
2017-12-19T10:37:35.353Z,35.80
2017-12-19T10:39:38.876Z,34.70
2017-12-19T10:41:42.370Z,43.90
2017-12-19T10:43:46.583Z,37.83
2017-12-19T10:45:50.922Z,38.13
2017-12-19T10:47:54.377Z,35.70
2017-12-19T10:49:58.637Z,35.70
2017-12-19T10:52:02.098Z,34.83
2017-12-19T10:54:05.555Z,36.70
2017-12-19T10:56:09.026Z,57.27
2017-12-19T10:58:12.468Z,50.50
2017-12-19T11:00:15.947Z,40.77
2017-12-19T11:02:21.137Z,41.70
2017-12-19T11:04:24.574Z,40.90
2017-12-19T11:06:29.034Z,37.63
2017-12-19T11:08:32.549Z,42.17
2017-12-19T11:10:35.990Z,36.87
2017-12-19T11:12:40.205Z,35.37
2017-12-19T11:14:43.701Z,36.57
2017-12-19T11:16:47.247Z,34.53
2017-12-19T11:18:50.691Z,35.50
2017-12-19T11:20:54.147Z,44.47
2017-12-19T11:22:57.664Z,38.53
2017-12-19T11:25:01.175Z,36.43
2017-12-19T11:27:05.115Z,38.40
2017-12-19T11:29:08.632Z,33.00
2017-12-19T11:31:12.111Z,41.33
2017-12-19T11:33:16.489Z,37.40
2017-12-19T11:35:19.981Z,40.37
2017-12-19T11:37:25.446Z,43.17
2017-12-19T11:39:31.020Z,39.73
2017-12-19T11:41:34.532Z,33.80
2017-12-19T11:43:38.232Z,39.10
2017-12-19T11:45:42.491Z,37.27
2017-12-19T11:47:45.956Z,32.53
2017-12-19T11:49:50.064Z,34.00
2017-12-19T11:51:55.265Z,37.00
2017-12-19T11:53:58.962Z,38.87
2017-12-19T11:56:03.456Z,41.07
2017-12-19T11:58:06.918Z,39.07
2017-12-19T12:00:11.397Z,40.30
2017-12-19T12:02:15.667Z,40.20
2017-12-19T12:04:22.799Z,43.20
2017-12-19T12:06:28.128Z,43.87
2017-12-19T12:08:31.678Z,39.07
2017-12-19T12:10:35.161Z,40.93
2017-12-19T12:12:38.621Z,37.70
2017-12-19T12:14:42.211Z,39.33
2017-12-19T12:16:45.697Z,38.40
2017-12-19T12:18:50.037Z,34.53
2017-12-19T12:20:53.524Z,33.00
2017-12-19T12:22:57.879Z,35.27
2017-12-19T12:25:02.509Z,51.57
2017-12-19T12:27:06.004Z,57.20
2017-12-19T12:29:09.450Z,54.67
2017-12-19T12:31:12.962Z,41.67
2017-12-19T12:33:16.407Z,47.53
2017-12-19T12:35:20.811Z,44.57
2017-12-19T12:37:24.289Z,40.17
2017-12-19T12:39:27.756Z,42.20
2017-12-19T12:41:32.481Z,41.77
2017-12-19T12:43:36.126Z,41.73
2017-12-19T12:45:39.811Z,42.20
2017-12-19T12:47:43.307Z,41.67
2017-12-19T12:49:46.753Z,42.20
2017-12-19T12:51:50.386Z,48.97
2017-12-19T12:53:54.660Z,50.83
2017-12-19T12:55:58.124Z,49.37
2017-12-19T12:58:01.632Z,45.63
2017-12-19T13:00:05.134Z,50.30
2017-12-19T13:02:08.996Z,45.60
2017-12-19T13:04:12.524Z,52.10
2017-12-19T13:06:16.048Z,46.50
2017-12-19T13:08:20.329Z,43.20
2017-12-19T13:10:23.779Z,43.17
2017-12-19T13:12:27.298Z,47.23
2017-12-19T13:14:30.774Z,38.70
2017-12-19T13:16:35.012Z,43.50
2017-12-19T13:18:38.513Z,35.73
2017-12-19T13:20:42.769Z,33.43
2017-12-19T13:22:46.232Z,42.50
2017-12-19T13:24:49.655Z,37.97
2017-12-19T13:26:53.925Z,32.70
2017-12-19T13:28:57.348Z,39.23
2017-12-19T13:31:01.602Z,33.97
2017-12-19T13:33:05.842Z,37.27
2017-12-19T13:35:09.316Z,34.50
2017-12-19T13:37:13.593Z,33.30
2017-12-19T13:39:17.062Z,36.50
2017-12-19T13:41:20.519Z,33.87
2017-12-19T13:43:23.989Z,30.47
2017-12-19T13:45:28.286Z,39.77
2017-12-19T13:47:32.521Z,35.70
2017-12-19T13:49:36.176Z,31.73
2017-12-19T13:51:39.634Z,36.57
2017-12-19T13:53:43.166Z,29.13
2017-12-19T13:55:47.649Z,28.57
2017-12-19T13:57:52.106Z,29.63
2017-12-19T13:59:55.640Z,33.70
2017-12-19T14:01:59.157Z,34.13
2017-12-19T14:04:02.950Z,32.30
2017-12-19T14:06:07.222Z,27.37
2017-12-19T14:08:11.167Z,29.67
2017-12-19T14:10:14.910Z,32.10
2017-12-19T14:12:19.306Z,26.97
2017-12-19T14:14:22.873Z,29.37
2017-12-19T14:16:26.356Z,31.93
2017-12-19T14:18:34.514Z,31.67
2017-12-19T14:20:39.043Z,26.53
2017-12-19T14:22:42.707Z,28.90
2017-12-19T14:24:46.505Z,26.20
2017-12-19T14:26:49.970Z,27.97
2017-12-19T14:28:53.458Z,31.73
2017-12-19T14:30:56.887Z,28.33
2017-12-19T14:33:00.395Z,27.47
2017-12-19T14:35:03.982Z,27.03
2017-12-19T14:37:07.452Z,35.70
2017-12-19T14:39:10.968Z,24.27
2017-12-19T14:41:15.325Z,28.40
2017-12-19T14:43:18.869Z,28.73
2017-12-19T14:45:22.399Z,24.00
2017-12-19T14:47:26.299Z,31.53
2017-12-19T14:49:29.784Z,26.93
2017-12-19T14:51:34.268Z,29.10
2017-12-19T14:53:37.741Z,27.13
2017-12-19T14:55:42.056Z,30.40
2017-12-19T14:57:45.609Z,33.73
2017-12-19T14:59:49.926Z,30.40
2017-12-19T15:01:53.516Z,28.60
2017-12-19T15:03:56.956Z,33.30
2017-12-19T15:06:00.426Z,27.30
2017-12-19T15:08:03.917Z,24.00
2017-12-19T15:10:07.463Z,23.43
2017-12-19T15:12:11.767Z,26.03
2017-12-19T15:14:15.214Z,27.73
2017-12-19T15:16:18.812Z,27.70
2017-12-19T15:18:22.254Z,26.37
2017-12-19T15:20:27.362Z,34.13
2017-12-19T15:22:31.978Z,31.23
2017-12-19T15:24:35.416Z,29.13
2017-12-19T15:26:40.696Z,25.90
2017-12-19T15:28:45.932Z,27.43
2017-12-19T15:30:49.839Z,31.53
2017-12-19T15:32:53.284Z,34.37
2017-12-19T15:34:56.720Z,26.67
2017-12-19T15:37:00.188Z,31.87
2017-12-19T15:39:04.412Z,41.17
2017-12-19T15:41:07.884Z,36.70
2017-12-19T15:43:12.127Z,32.03
2017-12-19T15:45:15.583Z,31.40
2017-12-19T15:47:19.047Z,37.87
2017-12-19T15:49:23.026Z,34.53
2017-12-19T15:51:26.648Z,31.70
2017-12-19T15:53:30.172Z,33.40
2017-12-19T15:55:33.621Z,35.50
2017-12-19T15:57:37.846Z,34.30
2017-12-19T15:59:41.276Z,35.83
2017-12-19T16:01:44.728Z,34.53
2017-12-19T16:03:48.167Z,36.30
2017-12-19T16:05:51.613Z,28.63
2017-12-19T16:07:55.888Z,33.10
2017-12-19T16:09:59.389Z,35.63
2017-12-19T16:12:02.884Z,35.37
2017-12-19T16:14:06.301Z,33.60
2017-12-19T16:16:09.748Z,30.70
2017-12-19T16:18:14.010Z,29.43
2017-12-19T16:20:17.429Z,40.07
2017-12-19T16:22:20.859Z,36.60
2017-12-19T16:24:25.088Z,31.40
2017-12-19T16:26:28.499Z,35.23
2017-12-19T16:28:31.973Z,32.80
2017-12-19T16:30:35.396Z,32.67
2017-12-19T16:32:38.826Z,29.57
2017-12-19T16:34:42.285Z,38.97
2017-12-19T16:36:45.725Z,34.37
2017-12-19T16:38:49.962Z,42.80
2017-12-19T16:40:53.390Z,41.50
2017-12-19T16:42:56.813Z,41.77
2017-12-19T16:45:00.339Z,37.80
2017-12-19T16:47:03.767Z,47.97
2017-12-19T16:49:07.240Z,47.23
2017-12-19T16:51:10.652Z,42.00
2017-12-19T16:53:14.061Z,40.40
2017-12-19T16:55:17.506Z,41.30
2017-12-19T16:57:20.927Z,49.10
2017-12-19T16:59:24.358Z,44.03
2017-12-19T17:01:27.790Z,47.53
2017-12-19T17:03:31.299Z,37.97
2017-12-19T17:05:34.735Z,36.50
2017-12-19T17:07:38.950Z,40.70
2017-12-19T17:09:42.418Z,50.53
2017-12-19T17:11:45.833Z,48.83
2017-12-19T17:13:49.291Z,46.20
2017-12-19T17:15:52.717Z,43.33
2017-12-19T17:17:56.164Z,46.87
2017-12-19T17:19:59.610Z,60.47
2017-12-19T17:22:03.034Z,62.87
2017-12-19T17:24:06.514Z,51.77
2017-12-19T17:26:10.724Z,41.70
2017-12-19T17:28:14.932Z,45.23
2017-12-19T17:30:18.416Z,40.50
2017-12-19T17:32:21.882Z,41.20
2017-12-19T17:34:25.300Z,41.30
2017-12-19T17:36:29.538Z,38.13
2017-12-19T17:38:33.041Z,37.30
2017-12-19T17:40:36.489Z,41.47
2017-12-19T17:42:39.934Z,35.67
2017-12-19T17:44:43.354Z,35.20
2017-12-19T17:46:46.929Z,44.33
2017-12-19T17:48:50.408Z,40.63
2017-12-19T17:50:53.961Z,39.47
2017-12-19T17:52:57.384Z,35.70
2017-12-19T17:55:01.595Z,34.80
2017-12-19T17:57:05.887Z,36.23
2017-12-19T17:59:10.188Z,33.27
2017-12-19T18:01:13.668Z,32.57
2017-12-19T18:03:17.214Z,37.67
2017-12-19T18:05:20.923Z,38.57
2017-12-19T18:07:25.773Z,38.40
2017-12-19T18:09:29.494Z,35.00
2017-12-19T18:11:33.376Z,48.20
2017-12-19T18:13:36.827Z,37.27
2017-12-19T18:15:40.394Z,40.60
2017-12-19T18:17:44.519Z,43.00
2017-12-19T18:19:49.635Z,41.67
2017-12-19T18:21:57.439Z,41.60
2017-12-19T18:24:02.158Z,50.57
2017-12-19T18:26:08.377Z,48.93
2017-12-19T18:28:12.809Z,40.73
2017-12-19T18:30:20.096Z,48.67
2017-12-19T18:32:26.305Z,44.30
2017-12-19T18:34:31.890Z,44.00
2017-12-19T18:36:36.368Z,49.37
2017-12-19T18:38:41.977Z,56.67
2017-12-19T18:40:47.203Z,51.73
2017-12-19T18:42:51.371Z,44.20
2017-12-19T18:44:55.160Z,50.00
2017-12-19T18:46:59.651Z,42.37
2017-12-19T18:49:03.927Z,43.67
2017-12-19T18:51:07.472Z,44.60
2017-12-19T18:53:12.551Z,51.30
2017-12-19T18:55:19.863Z,50.23
2017-12-19T18:57:23.553Z,51.37
2017-12-19T18:59:27.001Z,52.83
2017-12-19T19:01:31.197Z,53.17
2017-12-19T19:05:47.060Z,53.17
2017-12-19T19:07:50.593Z,51.73
2017-12-19T19:09:54.086Z,53.97
2017-12-19T19:11:59.363Z,47.10
2017-12-19T19:14:04.151Z,51.70
2017-12-19T19:16:08.383Z,53.67
2017-12-19T19:18:11.822Z,56.17
2017-12-19T19:20:15.996Z,55.57
2017-12-19T19:22:21.233Z,51.50
2017-12-19T19:24:27.178Z,48.30
2017-12-19T19:26:31.325Z,54.60
2017-12-19T19:28:34.807Z,57.13
2017-12-19T19:30:38.754Z,58.63
2017-12-19T19:32:43.082Z,44.73
2017-12-19T19:34:46.972Z,57.27
2017-12-19T19:36:51.652Z,53.80
2017-12-19T19:38:55.538Z,57.53
2017-12-19T19:40:59.268Z,54.10
2017-12-19T19:43:02.739Z,60.40
2017-12-19T19:45:07.505Z,56.73
2017-12-19T19:47:11.506Z,54.17
2017-12-19T19:49:15.255Z,53.80
2017-12-19T19:51:18.778Z,56.50
2017-12-19T19:53:22.399Z,56.93
2017-12-19T19:55:26.794Z,52.13
2017-12-19T19:57:30.882Z,56.50
2017-12-19T19:59:34.809Z,50.53
2017-12-19T20:01:39.367Z,54.07
2017-12-19T20:03:42.810Z,47.20
2017-12-19T20:05:46.265Z,57.40
2017-12-19T20:07:50.608Z,60.40
2017-12-19T20:09:55.658Z,52.20
2017-12-19T20:11:59.305Z,52.23
2017-12-19T20:14:04.361Z,58.00
2017-12-19T20:16:09.184Z,52.10
2017-12-19T20:18:12.843Z,46.63
2017-12-19T20:20:16.663Z,56.60
2017-12-19T20:22:21.065Z,54.60
2017-12-19T20:24:25.969Z,50.00
2017-12-19T20:26:32.654Z,49.87
2017-12-19T20:28:37.065Z,44.73
2017-12-19T20:30:42.008Z,45.23
2017-12-19T20:32:47.906Z,43.77
2017-12-19T20:34:52.751Z,61.63
2017-12-19T20:36:56.708Z,50.40
2017-12-19T20:39:00.758Z,65.47
2017-12-19T20:41:05.216Z,57.50
2017-12-19T20:43:11.062Z,56.67
2017-12-19T20:45:15.400Z,68.83
2017-12-19T20:47:19.329Z,68.97
2017-12-19T20:49:24.533Z,74.37
2017-12-19T20:51:28.834Z,55.60
2017-12-19T20:53:32.544Z,49.90
2017-12-19T20:55:36.171Z,60.00
2017-12-19T20:57:40.130Z,59.57
2017-12-19T20:59:44.602Z,59.70
2017-12-19T21:01:48.994Z,58.23
2017-12-19T21:03:52.798Z,59.70
2017-12-19T21:05:57.520Z,57.87
2017-12-19T21:08:00.963Z,59.87
2017-12-19T21:10:04.736Z,59.00
2017-12-19T21:12:08.546Z,67.10
2017-12-19T21:14:12.081Z,70.00
2017-12-19T21:16:16.306Z,64.07
2017-12-19T21:18:19.742Z,60.50
2017-12-19T21:20:23.972Z,59.43
2017-12-19T21:22:27.402Z,60.63
2017-12-19T21:24:30.924Z,61.87
2017-12-19T21:26:34.392Z,51.97
2017-12-19T21:28:38.634Z,68.63
2017-12-19T21:30:42.147Z,66.10
2017-12-19T21:32:45.643Z,72.10
2017-12-19T21:34:49.103Z,72.20
2017-12-19T21:36:52.585Z,71.67
2017-12-19T21:38:56.017Z,62.03
2017-12-19T21:40:59.515Z,66.03
2017-12-19T21:43:02.968Z,61.40
2017-12-19T21:45:06.468Z,60.03
2017-12-19T21:47:09.909Z,55.17
2017-12-19T21:49:13.331Z,54.23
2017-12-19T21:51:16.791Z,49.33
2017-12-19T21:53:20.215Z,56.70
2017-12-19T21:55:23.651Z,74.67
2017-12-19T21:57:27.129Z,51.80
2017-12-19T21:59:30.552Z,64.77
2017-12-19T22:01:34.827Z,56.03
2017-12-19T22:03:39.054Z,53.27
2017-12-19T22:05:43.258Z,57.20
2017-12-19T22:07:46.699Z,49.90
2017-12-19T22:09:50.146Z,54.67
2017-12-19T22:11:54.408Z,49.77
2017-12-19T22:13:57.846Z,70.87
2017-12-19T22:16:01.285Z,77.73
2017-12-19T22:18:04.800Z,122.27
2017-12-19T22:20:08.239Z,86.17
2017-12-19T22:22:12.461Z,58.37
2017-12-19T22:24:15.939Z,65.67
2017-12-19T22:26:19.383Z,53.50
2017-12-19T22:28:22.873Z,49.07
2017-12-19T22:30:26.322Z,52.10
2017-12-19T22:32:30.582Z,68.87
2017-12-19T22:34:34.050Z,63.63
2017-12-19T22:36:38.288Z,56.37
2017-12-19T22:38:41.757Z,47.13
2017-12-19T22:40:45.181Z,42.03
2017-12-19T22:42:48.673Z,45.80
2017-12-19T22:44:52.116Z,46.63
2017-12-19T22:46:55.562Z,39.63
2017-12-19T22:48:59.057Z,37.27
2017-12-19T22:51:02.505Z,35.20
2017-12-19T22:53:05.960Z,39.23
2017-12-19T22:55:09.490Z,31.47
2017-12-19T22:57:12.946Z,37.67
2017-12-19T22:59:16.441Z,37.13
2017-12-19T23:01:19.899Z,31.33
2017-12-19T23:03:23.367Z,30.70
2017-12-19T23:05:26.859Z,36.80
2017-12-19T23:07:30.283Z,46.30
2017-12-19T23:09:33.788Z,39.00
2017-12-19T23:11:37.715Z,35.00
2017-12-19T23:13:41.214Z,31.83
2017-12-19T23:15:44.677Z,30.83
2017-12-19T23:17:48.121Z,31.70
2017-12-19T23:19:51.577Z,34.17
2017-12-19T23:21:55.048Z,35.43
2017-12-19T23:23:59.232Z,39.13
2017-12-19T23:26:02.690Z,34.50
2017-12-19T23:28:06.117Z,35.20
2017-12-19T23:30:09.640Z,34.60
2017-12-19T23:32:13.819Z,31.07
2017-12-19T23:34:17.246Z,34.83
2017-12-19T23:36:21.458Z,35.83
2017-12-19T23:38:25.655Z,40.13
2017-12-19T23:40:29.132Z,37.40
2017-12-19T23:42:32.569Z,34.50
2017-12-19T23:44:36.437Z,36.90
2017-12-19T23:46:40.678Z,36.57
2017-12-19T23:48:44.127Z,34.00
2017-12-19T23:50:47.626Z,31.23
2017-12-19T23:52:51.832Z,37.10
2017-12-19T23:54:55.237Z,37.67
2017-12-19T23:56:58.742Z,37.70
2017-12-19T23:59:02.190Z,38.57
